sensor_id;sensor_type;location;lat;lon;timestamp;pressure;altitude;pressure_sealevel;temperature;humidity
50057;BME280;36875;49.468;11.200;2024-03-17T00:01:31;98621.34;;;28.91;30.32
50057;BME280;36875;49.468;11.200;2024-03-17T00:03:58;98618.72;;;28.82;30.67
50057;BME280;36875;49.468;11.200;2024-03-17T00:06:24;98618.28;;;28.80;30.52
50057;BME280;36875;49.468;11.200;2024-03-17T00:08:49;98622.72;;;28.69;30.85
50057;BME280;36875;49.468;11.200;2024-03-17T00:11:15;98618.69;;;28.66;31.05
50057;BME280;36875;49.468;11.200;2024-03-17T00:13:40;98618.72;;;28.54;31.20
50057;BME280;36875;49.468;11.200;2024-03-17T00:16:06;98617.97;;;28.29;31.56
50057;BME280;36875;49.468;11.200;2024-03-17T00:18:32;98620.16;;;28.23;31.29
50057;BME280;36875;49.468;11.200;2024-03-17T00:20:58;98618.00;;;28.16;31.70
50057;BME280;36875;49.468;11.200;2024-03-17T00:23:24;98622.19;;;27.98;32.01
50057;BME280;36875;49.468;11.200;2024-03-17T00:25:50;98632.31;;;27.94;32.19
50057;BME280;36875;49.468;11.200;2024-03-17T00:28:16;98629.94;;;27.92;31.96
50057;BME280;36875;49.468;11.200;2024-03-17T00:30:41;98636.44;;;27.87;31.90
50057;BME280;36875;49.468;11.200;2024-03-17T00:33:06;98630.34;;;27.82;31.81
50057;BME280;36875;49.468;11.200;2024-03-17T00:35:32;98624.59;;;27.75;31.83
50057;BME280;36875;49.468;11.200;2024-03-17T00:37:59;98622.66;;;27.63;32.36
50057;BME280;36875;49.468;11.200;2024-03-17T00:40:26;98624.47;;;27.59;32.28
50057;BME280;36875;49.468;11.200;2024-03-17T00:42:51;98625.41;;;27.50;32.29
50057;BME280;36875;49.468;11.200;2024-03-17T00:45:19;98624.56;;;27.38;32.84
50057;BME280;36875;49.468;11.200;2024-03-17T00:47:44;98629.53;;;27.32;32.75
50057;BME280;36875;49.468;11.200;2024-03-17T00:50:09;98625.00;;;27.27;32.42
50057;BME280;36875;49.468;11.200;2024-03-17T00:52:36;98629.00;;;27.18;32.60
50057;BME280;36875;49.468;11.200;2024-03-17T00:55:03;98634.53;;;27.18;32.63
50057;BME280;36875;49.468;11.200;2024-03-17T00:57:29;98634.72;;;27.12;32.99
50057;BME280;36875;49.468;11.200;2024-03-17T00:59:55;98632.88;;;27.04;32.89
50057;BME280;36875;49.468;11.200;2024-03-17T01:02:21;98633.09;;;26.99;32.76
50057;BME280;36875;49.468;11.200;2024-03-17T01:04:47;98646.06;;;26.86;33.27
50057;BME280;36875;49.468;11.200;2024-03-17T01:07:12;98640.53;;;26.86;32.98
50057;BME280;36875;49.468;11.200;2024-03-17T01:09:37;98630.53;;;26.82;33.20
50057;BME280;36875;49.468;11.200;2024-03-17T01:12:04;98633.03;;;26.75;33.38
50057;BME280;36875;49.468;11.200;2024-03-17T01:14:30;98632.88;;;26.71;33.57
50057;BME280;36875;49.468;11.200;2024-03-17T01:16:56;98632.28;;;26.65;33.49
50057;BME280;36875;49.468;11.200;2024-03-17T01:19:22;98633.78;;;26.54;33.74
50057;BME280;36875;49.468;11.200;2024-03-17T01:21:47;98635.09;;;26.57;33.73
50057;BME280;36875;49.468;11.200;2024-03-17T01:24:12;98632.66;;;26.55;33.15
50057;BME280;36875;49.468;11.200;2024-03-17T01:26:38;98635.56;;;26.38;33.58
50057;BME280;36875;49.468;11.200;2024-03-17T01:29:04;98634.75;;;26.37;33.52
50057;BME280;36875;49.468;11.200;2024-03-17T01:31:30;98631.09;;;26.24;33.79
50057;BME280;36875;49.468;11.200;2024-03-17T01:33:55;98623.78;;;26.28;33.47
50057;BME280;36875;49.468;11.200;2024-03-17T01:36:21;98618.34;;;26.20;33.91
50057;BME280;36875;49.468;11.200;2024-03-17T01:38:46;98613.34;;;26.13;34.06
50057;BME280;36875;49.468;11.200;2024-03-17T01:41:11;98613.53;;;26.08;34.13
50057;BME280;36875;49.468;11.200;2024-03-17T01:43:38;98612.13;;;26.02;34.37
50057;BME280;36875;49.468;11.200;2024-03-17T01:46:05;98608.75;;;25.96;33.96
50057;BME280;36875;49.468;11.200;2024-03-17T01:48:30;98612.31;;;25.96;33.89
50057;BME280;36875;49.468;11.200;2024-03-17T01:50:56;98582.59;;;25.72;34.05
50057;BME280;36875;49.468;11.200;2024-03-17T01:53:22;98596.47;;;25.85;34.27
50057;BME280;36875;49.468;11.200;2024-03-17T01:55:50;98593.09;;;25.79;34.46
50057;BME280;36875;49.468;11.200;2024-03-17T01:58:17;98586.69;;;25.66;34.53
50057;BME280;36875;49.468;11.200;2024-03-17T02:00:45;98593.81;;;25.67;34.42
50057;BME280;36875;49.468;11.200;2024-03-17T02:03:11;98593.66;;;25.64;34.34
50057;BME280;36875;49.468;11.200;2024-03-17T02:05:37;98587.84;;;25.56;34.39
50057;BME280;36875;49.468;11.200;2024-03-17T02:08:03;98589.03;;;25.47;34.84
50057;BME280;36875;49.468;11.200;2024-03-17T02:10:28;98582.06;;;25.49;34.51
50057;BME280;36875;49.468;11.200;2024-03-17T02:12:54;98589.06;;;25.38;34.66
50057;BME280;36875;49.468;11.200;2024-03-17T02:15:19;98581.81;;;25.33;34.63
50057;BME280;36875;49.468;11.200;2024-03-17T02:17:45;98584.91;;;25.32;34.74
50057;BME280;36875;49.468;11.200;2024-03-17T02:20:12;98585.84;;;25.36;34.65
50057;BME280;36875;49.468;11.200;2024-03-17T02:22:40;98572.25;;;25.31;34.89
50057;BME280;36875;49.468;11.200;2024-03-17T02:25:05;98570.81;;;25.25;34.79
50057;BME280;36875;49.468;11.200;2024-03-17T02:27:34;98568.53;;;25.18;34.67
50057;BME280;36875;49.468;11.200;2024-03-17T02:29:59;98572.94;;;25.10;34.82
50057;BME280;36875;49.468;11.200;2024-03-17T02:32:25;98569.25;;;25.06;34.92
50057;BME280;36875;49.468;11.200;2024-03-17T02:34:52;98572.00;;;25.06;35.26
50057;BME280;36875;49.468;11.200;2024-03-17T02:37:18;98568.63;;;25.00;34.83
50057;BME280;36875;49.468;11.200;2024-03-17T02:39:44;98570.09;;;24.98;35.12
50057;BME280;36875;49.468;11.200;2024-03-17T02:42:10;98570.75;;;24.95;34.96
50057;BME280;36875;49.468;11.200;2024-03-17T02:44:36;98575.94;;;24.88;35.08
50057;BME280;36875;49.468;11.200;2024-03-17T02:47:02;98562.50;;;24.86;35.32
50057;BME280;36875;49.468;11.200;2024-03-17T02:49:29;98571.09;;;24.85;35.23
50057;BME280;36875;49.468;11.200;2024-03-17T02:52:01;98563.81;;;24.80;35.30
50057;BME280;36875;49.468;11.200;2024-03-17T02:54:27;98566.41;;;24.76;35.28
50057;BME280;36875;49.468;11.200;2024-03-17T02:56:54;98566.59;;;24.71;35.38
50057;BME280;36875;49.468;11.200;2024-03-17T02:59:19;98561.72;;;24.68;35.35
50057;BME280;36875;49.468;11.200;2024-03-17T03:01:44;98564.00;;;24.66;35.45
50057;BME280;36875;49.468;11.200;2024-03-17T03:04:10;98556.41;;;24.63;35.28
50057;BME280;36875;49.468;11.200;2024-03-17T03:06:35;98559.66;;;24.56;35.14
50057;BME280;36875;49.468;11.200;2024-03-17T03:09:00;98561.25;;;24.49;35.69
50057;BME280;36875;49.468;11.200;2024-03-17T03:11:26;98563.19;;;24.48;35.29
50057;BME280;36875;49.468;11.200;2024-03-17T03:13:52;98567.09;;;24.47;35.40
50057;BME280;36875;49.468;11.200;2024-03-17T03:16:18;98564.50;;;24.51;35.40
50057;BME280;36875;49.468;11.200;2024-03-17T03:18:44;98576.97;;;24.39;35.52
50057;BME280;36875;49.468;11.200;2024-03-17T03:21:09;98568.88;;;24.43;35.38
50057;BME280;36875;49.468;11.200;2024-03-17T03:23:34;98575.66;;;24.37;35.39
50057;BME280;36875;49.468;11.200;2024-03-17T03:26:00;98573.09;;;24.32;35.49
50057;BME280;36875;49.468;11.200;2024-03-17T03:28:28;98574.53;;;24.29;35.69
50057;BME280;36875;49.468;11.200;2024-03-17T03:30:55;98579.06;;;24.25;35.38
50057;BME280;36875;49.468;11.200;2024-03-17T03:33:20;98579.69;;;24.22;35.53
50057;BME280;36875;49.468;11.200;2024-03-17T03:35:46;98582.28;;;24.18;35.75
50057;BME280;36875;49.468;11.200;2024-03-17T03:38:11;98576.63;;;24.15;35.64
50057;BME280;36875;49.468;11.200;2024-03-17T03:40:38;98579.56;;;24.10;35.69
50057;BME280;36875;49.468;11.200;2024-03-17T03:43:03;98580.34;;;24.10;35.90
50057;BME280;36875;49.468;11.200;2024-03-17T03:45:29;98552.19;;;23.87;35.77
50057;BME280;36875;49.468;11.200;2024-03-17T03:47:55;98581.63;;;24.04;35.75
50057;BME280;36875;49.468;11.200;2024-03-17T03:50:21;98588.59;;;24.01;35.69
50057;BME280;36875;49.468;11.200;2024-03-17T03:52:47;98578.88;;;23.95;35.75
50057;BME280;36875;49.468;11.200;2024-03-17T03:55:12;98579.38;;;23.97;35.72
50057;BME280;36875;49.468;11.200;2024-03-17T03:57:41;98580.16;;;23.89;36.03
50057;BME280;36875;49.468;11.200;2024-03-17T04:00:07;98575.63;;;23.84;35.94
50057;BME280;36875;49.468;11.200;2024-03-17T04:02:37;98586.94;;;23.83;35.94
50057;BME280;36875;49.468;11.200;2024-03-17T04:05:04;98584.31;;;23.78;35.87
50057;BME280;36875;49.468;11.200;2024-03-17T04:07:30;98581.06;;;23.76;36.00
50057;BME280;36875;49.468;11.200;2024-03-17T04:09:55;98583.81;;;23.76;36.23
50057;BME280;36875;49.468;11.200;2024-03-17T04:12:20;98581.69;;;23.73;35.93
50057;BME280;36875;49.468;11.200;2024-03-17T04:14:46;98583.16;;;23.70;36.05
50057;BME280;36875;49.468;11.200;2024-03-17T04:17:11;98585.75;;;23.66;35.96
50057;BME280;36875;49.468;11.200;2024-03-17T04:19:37;98580.88;;;23.63;36.21
50057;BME280;36875;49.468;11.200;2024-03-17T04:22:03;98580.38;;;23.61;36.29
50057;BME280;36875;49.468;11.200;2024-03-17T04:24:29;98577.16;;;23.59;36.03
50057;BME280;36875;49.468;11.200;2024-03-17T04:26:54;98569.03;;;23.54;36.12
50057;BME280;36875;49.468;11.200;2024-03-17T04:29:19;98572.94;;;23.53;36.28
50057;BME280;36875;49.468;11.200;2024-03-17T04:31:45;98563.72;;;23.49;36.30
50057;BME280;36875;49.468;11.200;2024-03-17T04:34:13;98567.09;;;23.46;36.21
50057;BME280;36875;49.468;11.200;2024-03-17T04:36:39;98570.97;;;23.45;36.31
50057;BME280;36875;49.468;11.200;2024-03-17T04:39:05;98572.41;;;23.42;36.13
50057;BME280;36875;49.468;11.200;2024-03-17T04:41:33;98570.59;;;23.38;36.46
50057;BME280;36875;49.468;11.200;2024-03-17T04:43:58;98576.75;;;23.35;36.36
50057;BME280;36875;49.468;11.200;2024-03-17T04:46:24;98576.28;;;23.33;36.48
50057;BME280;36875;49.468;11.200;2024-03-17T04:48:49;98580.44;;;23.30;36.27
50057;BME280;36875;49.468;11.200;2024-03-17T04:51:15;98569.78;;;23.28;36.44
50057;BME280;36875;49.468;11.200;2024-03-17T04:53:40;98573.16;;;23.25;36.31
50057;BME280;36875;49.468;11.200;2024-03-17T04:56:08;98573.97;;;23.26;36.17
50057;BME280;36875;49.468;11.200;2024-03-17T04:58:34;98574.28;;;23.24;36.14
50057;BME280;36875;49.468;11.200;2024-03-17T05:01:05;98571.66;;;23.19;36.18
50057;BME280;36875;49.468;11.200;2024-03-17T05:03:31;98570.38;;;23.17;36.51
50057;BME280;36875;49.468;11.200;2024-03-17T05:05:59;98571.50;;;23.16;36.43
50057;BME280;36875;49.468;11.200;2024-03-17T05:08:27;98575.50;;;23.09;36.41
50057;BME280;36875;49.468;11.200;2024-03-17T05:10:55;98578.75;;;23.12;36.30
50057;BME280;36875;49.468;11.200;2024-03-17T05:13:22;98582.94;;;23.09;36.43
50057;BME280;36875;49.468;11.200;2024-03-17T05:15:47;98580.03;;;23.05;36.42
50057;BME280;36875;49.468;11.200;2024-03-17T05:18:13;98583.34;;;23.02;36.55
50057;BME280;36875;49.468;11.200;2024-03-17T05:20:38;98585.91;;;22.99;36.35
50057;BME280;36875;49.468;11.200;2024-03-17T05:23:03;98576.06;;;22.98;36.59
50057;BME280;36875;49.468;11.200;2024-03-17T05:25:29;98585.72;;;22.95;36.33
50057;BME280;36875;49.468;11.200;2024-03-17T05:27:54;98582.69;;;22.97;36.33
50057;BME280;36875;49.468;11.200;2024-03-17T05:30:21;98582.81;;;22.91;36.44
50057;BME280;36875;49.468;11.200;2024-03-17T05:32:46;98586.19;;;22.88;36.50
50057;BME280;36875;49.468;11.200;2024-03-17T05:35:12;98598.78;;;22.89;36.59
50057;BME280;36875;49.468;11.200;2024-03-17T05:37:37;98595.06;;;22.85;36.78
50057;BME280;36875;49.468;11.200;2024-03-17T05:40:03;98591.81;;;22.83;36.45
50057;BME280;36875;49.468;11.200;2024-03-17T05:42:28;98598.41;;;22.82;36.75
50057;BME280;36875;49.468;11.200;2024-03-17T05:44:54;98597.44;;;22.78;36.49
50057;BME280;36875;49.468;11.200;2024-03-17T05:47:20;98595.78;;;22.77;36.59
50057;BME280;36875;49.468;11.200;2024-03-17T05:49:46;98605.16;;;22.76;36.67
50057;BME280;36875;49.468;11.200;2024-03-17T05:52:11;98601.94;;;22.74;36.49
50057;BME280;36875;49.468;11.200;2024-03-17T05:54:36;98600.28;;;22.73;36.66
50057;BME280;36875;49.468;11.200;2024-03-17T05:57:02;98604.47;;;22.70;36.47
50057;BME280;36875;49.468;11.200;2024-03-17T05:59:29;98603.16;;;22.68;36.60
50057;BME280;36875;49.468;11.200;2024-03-17T06:01:54;98603.31;;;22.63;36.70
50057;BME280;36875;49.468;11.200;2024-03-17T06:04:21;98606.84;;;22.63;36.69
50057;BME280;36875;49.468;11.200;2024-03-17T06:06:46;98602.81;;;22.61;36.68
50057;BME280;36875;49.468;11.200;2024-03-17T06:09:13;98609.41;;;22.60;36.48
50057;BME280;36875;49.468;11.200;2024-03-17T06:11:42;98613.91;;;22.56;36.79
50057;BME280;36875;49.468;11.200;2024-03-17T06:14:08;98609.53;;;22.55;36.74
50057;BME280;36875;49.468;11.200;2024-03-17T06:16:36;98612.56;;;22.53;36.97
50057;BME280;36875;49.468;11.200;2024-03-17T06:19:02;98614.00;;;22.50;36.73
50057;BME280;36875;49.468;11.200;2024-03-17T06:21:29;98611.88;;;22.47;36.83
50057;BME280;36875;49.468;11.200;2024-03-17T06:23:54;98615.75;;;22.46;36.80
50057;BME280;36875;49.468;11.200;2024-03-17T06:26:20;98610.38;;;22.41;36.92
50057;BME280;36875;49.468;11.200;2024-03-17T06:28:45;98606.00;;;22.40;36.74
50057;BME280;36875;49.468;11.200;2024-03-17T06:31:11;98613.13;;;22.41;36.94
50057;BME280;36875;49.468;11.200;2024-03-17T06:33:36;98606.66;;;22.37;36.87
50057;BME280;36875;49.468;11.200;2024-03-17T06:36:01;98612.13;;;22.37;36.87
50057;BME280;36875;49.468;11.200;2024-03-17T06:38:30;98603.72;;;22.33;36.75
50057;BME280;36875;49.468;11.200;2024-03-17T06:40:56;98609.81;;;22.30;37.20
50057;BME280;36875;49.468;11.200;2024-03-17T06:43:21;98613.66;;;22.29;37.01
50057;BME280;36875;49.468;11.200;2024-03-17T06:45:53;98604.13;;;22.27;36.88
50057;BME280;36875;49.468;11.200;2024-03-17T06:48:19;98604.72;;;22.24;37.11
50057;BME280;36875;49.468;11.200;2024-03-17T06:50:44;98610.19;;;22.24;36.91
50057;BME280;36875;49.468;11.200;2024-03-17T06:53:09;98604.22;;;22.22;36.77
50057;BME280;36875;49.468;11.200;2024-03-17T06:55:36;98606.47;;;22.20;37.11
50057;BME280;36875;49.468;11.200;2024-03-17T06:58:01;98610.84;;;22.21;36.89
50057;BME280;36875;49.468;11.200;2024-03-17T07:00:28;98605.16;;;22.17;37.18
50057;BME280;36875;49.468;11.200;2024-03-17T07:02:53;98600.78;;;22.16;37.14
50057;BME280;36875;49.468;11.200;2024-03-17T07:05:19;98601.91;;;22.15;37.15
50057;BME280;36875;49.468;11.200;2024-03-17T07:07:44;98596.75;;;22.13;37.09
50057;BME280;36875;49.468;11.200;2024-03-17T07:10:11;98594.59;;;22.10;37.27
50057;BME280;36875;49.468;11.200;2024-03-17T07:12:37;98592.66;;;22.11;36.85
50057;BME280;36875;49.468;11.200;2024-03-17T07:15:03;98594.59;;;22.10;37.27
50057;BME280;36875;49.468;11.200;2024-03-17T07:17:29;98589.13;;;22.10;37.25
50057;BME280;36875;49.468;11.200;2024-03-17T07:19:54;98593.59;;;22.06;37.30
50057;BME280;36875;49.468;11.200;2024-03-17T07:22:20;98596.84;;;22.08;37.10
50057;BME280;36875;49.468;11.200;2024-03-17T07:24:47;98597.47;;;22.05;37.01
50057;BME280;36875;49.468;11.200;2024-03-17T07:27:12;98587.63;;;22.04;37.26
50057;BME280;36875;49.468;11.200;2024-03-17T07:29:41;98584.09;;;22.04;37.14
50057;BME280;36875;49.468;11.200;2024-03-17T07:32:06;98586.50;;;22.05;37.09
50057;BME280;36875;49.468;11.200;2024-03-17T07:34:31;98592.31;;;22.04;36.97
50057;BME280;36875;49.468;11.200;2024-03-17T07:36:57;98595.34;;;22.02;37.09
50057;BME280;36875;49.468;11.200;2024-03-17T07:39:25;98600.53;;;22.04;37.21
50057;BME280;36875;49.468;11.200;2024-03-17T07:41:55;98603.28;;;22.04;36.99
50057;BME280;36875;49.468;11.200;2024-03-17T07:44:21;98591.78;;;22.02;37.16
50057;BME280;36875;49.468;11.200;2024-03-17T07:46:49;98586.28;;;22.02;37.03
50057;BME280;36875;49.468;11.200;2024-03-17T07:49:14;98583.75;;;22.05;37.03
50057;BME280;36875;49.468;11.200;2024-03-17T07:51:41;98575.53;;;22.05;37.30
50057;BME280;36875;49.468;11.200;2024-03-17T07:54:06;98576.03;;;22.07;37.06
50057;BME280;36875;49.468;11.200;2024-03-17T07:56:32;98576.84;;;22.08;37.08
50057;BME280;36875;49.468;11.200;2024-03-17T07:58:57;98567.31;;;22.05;37.28
50057;BME280;36875;49.468;11.200;2024-03-17T08:01:22;98571.50;;;22.03;37.13
50057;BME280;36875;49.468;11.200;2024-03-17T08:03:49;98574.22;;;22.03;37.11
50057;BME280;36875;49.468;11.200;2024-03-17T08:06:18;98574.03;;;21.99;37.55
50057;BME280;36875;49.468;11.200;2024-03-17T08:08:44;98574.03;;;21.99;37.76
50057;BME280;36875;49.468;11.200;2024-03-17T08:11:09;98565.81;;;21.99;37.86
50057;BME280;36875;49.468;11.200;2024-03-17T08:13:34;98563.38;;;21.98;38.18
50057;BME280;36875;49.468;11.200;2024-03-17T08:16:00;98562.16;;;22.04;38.25
50057;BME280;36875;49.468;11.200;2024-03-17T08:18:26;98556.84;;;22.07;38.47
50057;BME280;36875;49.468;11.200;2024-03-17T08:20:55;98556.53;;;22.09;38.34
50057;BME280;36875;49.468;11.200;2024-03-17T08:23:21;98549.00;;;22.14;38.32
50057;BME280;36875;49.468;11.200;2024-03-17T08:25:51;98550.94;;;22.28;37.97
50057;BME280;36875;49.468;11.200;2024-03-17T08:28:16;98553.69;;;22.50;38.00
50057;BME280;36875;49.468;11.200;2024-03-17T08:30:42;98554.41;;;22.65;37.53
50057;BME280;36875;49.468;11.200;2024-03-17T08:33:07;98543.22;;;22.84;37.45
50057;BME280;36875;49.468;11.200;2024-03-17T08:35:34;98545.66;;;22.85;37.51
50057;BME280;36875;49.468;11.200;2024-03-17T08:38:03;98554.66;;;23.08;37.24
50057;BME280;36875;49.468;11.200;2024-03-17T08:40:30;98545.34;;;23.18;36.92
50057;BME280;36875;49.468;11.200;2024-03-17T08:42:55;98536.53;;;23.39;36.47
50057;BME280;36875;49.468;11.200;2024-03-17T08:47:05;98529.09;;;23.97;35.68
50057;BME280;36875;49.468;11.200;2024-03-17T08:49:30;98537.97;;;24.29;35.01
50057;BME280;36875;49.468;11.200;2024-03-17T08:51:56;98528.41;;;24.43;34.67
50057;BME280;36875;49.468;11.200;2024-03-17T08:54:22;98531.78;;;24.40;34.42
50057;BME280;36875;49.468;11.200;2024-03-17T08:56:47;98532.59;;;24.50;34.25
50057;BME280;36875;49.468;11.200;2024-03-17T08:59:13;98530.03;;;24.62;34.71
50057;BME280;36875;49.468;11.200;2024-03-17T09:01:39;98532.63;;;24.58;35.04
50057;BME280;36875;49.468;11.200;2024-03-17T09:04:06;98532.78;;;24.53;35.10
50057;BME280;36875;49.468;11.200;2024-03-17T09:06:31;98534.25;;;24.59;34.73
50057;BME280;36875;49.468;11.200;2024-03-17T09:08:57;98531.66;;;24.63;34.97
50057;BME280;36875;49.468;11.200;2024-03-17T09:11:23;98529.88;;;24.58;34.73
50057;BME280;36875;49.468;11.200;2024-03-17T09:13:51;98514.16;;;24.50;34.67
50057;BME280;36875;49.468;11.200;2024-03-17T09:16:16;98535.03;;;24.69;35.01
50057;BME280;36875;49.468;11.200;2024-03-17T09:18:44;98529.00;;;24.75;34.51
50057;BME280;36875;49.468;11.200;2024-03-17T09:21:10;98531.13;;;24.78;34.57
50057;BME280;36875;49.468;11.200;2024-03-17T09:23:37;98535.84;;;24.69;35.38
50057;BME280;36875;49.468;11.200;2024-03-17T09:26:04;98533.81;;;24.96;34.93
50057;BME280;36875;49.468;11.200;2024-03-17T09:28:31;98537.22;;;25.01;34.54
50057;BME280;36875;49.468;11.200;2024-03-17T09:30:58;98527.97;;;24.97;34.90
50057;BME280;36875;49.468;11.200;2024-03-17T09:33:24;98530.00;;;24.79;34.99
50057;BME280;36875;49.468;11.200;2024-03-17T09:35:54;98534.81;;;24.91;34.50
50057;BME280;36875;49.468;11.200;2024-03-17T09:38:21;98528.69;;;24.68;35.52
50057;BME280;36875;49.468;11.200;2024-03-17T09:40:48;98535.94;;;24.90;35.42
50057;BME280;36875;49.468;11.200;2024-03-17T09:43:16;98528.81;;;24.89;35.21
50057;BME280;36875;49.468;11.200;2024-03-17T09:45:42;98519.50;;;25.11;34.70
50057;BME280;36875;49.468;11.200;2024-03-17T09:48:13;98516.34;;;25.21;34.60
50057;BME280;36875;49.468;11.200;2024-03-17T09:50:39;98513.97;;;25.20;34.91
50057;BME280;36875;49.468;11.200;2024-03-17T09:53:06;98512.47;;;25.31;34.43
50057;BME280;36875;49.468;11.200;2024-03-17T09:55:33;98514.34;;;25.39;34.46
50057;BME280;36875;49.468;11.200;2024-03-17T09:57:59;98509.47;;;25.45;34.65
50057;BME280;36875;49.468;11.200;2024-03-17T10:00:25;98500.34;;;25.53;34.50
50057;BME280;36875;49.468;11.200;2024-03-17T10:02:50;98513.72;;;25.64;33.98
50057;BME280;36875;49.468;11.200;2024-03-17T10:05:20;98510.03;;;25.59;34.29
50057;BME280;36875;49.468;11.200;2024-03-17T10:07:46;98500.09;;;25.67;34.16
50057;BME280;36875;49.468;11.200;2024-03-17T10:10:13;98503.13;;;25.74;33.22
50057;BME280;36875;49.468;11.200;2024-03-17T10:12:40;98508.09;;;25.81;32.93
50057;BME280;36875;49.468;11.200;2024-03-17T10:15:10;98503.31;;;25.69;33.41
50057;BME280;36875;49.468;11.200;2024-03-17T10:17:36;98500.41;;;25.66;33.37
50057;BME280;36875;49.468;11.200;2024-03-17T10:20:14;98514.28;;;25.57;33.76
50057;BME280;36875;49.468;11.200;2024-03-17T10:22:58;98513.16;;;25.49;32.70
50057;BME280;36875;49.468;11.200;2024-03-17T10:25:25;98504.63;;;25.42;32.51
50057;BME280;36875;49.468;11.200;2024-03-17T10:27:52;98505.69;;;25.20;32.16
50057;BME280;36875;49.468;11.200;2024-03-17T10:30:18;98508.09;;;25.21;31.88
50057;BME280;36875;49.468;11.200;2024-03-17T10:32:52;98501.66;;;25.17;32.62
50057;BME280;36875;49.468;11.200;2024-03-17T10:35:27;98500.41;;;25.06;33.14
50057;BME280;36875;49.468;11.200;2024-03-17T10:37:54;98493.50;;;24.91;33.71
50057;BME280;36875;49.468;11.200;2024-03-17T10:40:21;98490.72;;;25.00;33.66
50057;BME280;36875;49.468;11.200;2024-03-17T10:42:48;98478.72;;;24.96;34.02
50057;BME280;36875;49.468;11.200;2024-03-17T10:45:16;98488.00;;;24.91;34.09
50057;BME280;36875;49.468;11.200;2024-03-17T10:47:43;98487.13;;;24.99;34.00
50057;BME280;36875;49.468;11.200;2024-03-17T10:50:17;98489.75;;;24.96;33.95
50057;BME280;36875;49.468;11.200;2024-03-17T10:52:44;98479.91;;;24.86;34.22
50057;BME280;36875;49.468;11.200;2024-03-17T10:55:21;98494.69;;;24.81;33.91
50057;BME280;36875;49.468;11.200;2024-03-17T10:57:49;98486.63;;;24.68;34.47
50057;BME280;36875;49.468;11.200;2024-03-17T11:00:17;98484.34;;;24.61;34.46
50057;BME280;36875;49.468;11.200;2024-03-17T11:02:43;98469.97;;;24.55;34.63
50057;BME280;36875;49.468;11.200;2024-03-17T11:05:14;98473.34;;;24.61;34.81
50057;BME280;36875;49.468;11.200;2024-03-17T11:07:40;98478.59;;;24.54;34.85
50057;BME280;36875;49.468;11.200;2024-03-17T11:10:11;98473.06;;;24.54;34.57
50057;BME280;36875;49.468;11.200;2024-03-17T11:12:41;98473.06;;;24.54;34.63
50057;BME280;36875;49.468;11.200;2024-03-17T11:15:37;98466.94;;;24.39;34.70
50057;BME280;36875;49.468;11.200;2024-03-17T11:18:27;98474.50;;;24.42;34.85
50057;BME280;36875;49.468;11.200;2024-03-17T11:20:58;98473.06;;;24.54;34.98
50057;BME280;36875;49.468;11.200;2024-03-17T11:23:27;98479.53;;;24.58;34.72
50057;BME280;36875;49.468;11.200;2024-03-17T11:25:54;98481.63;;;24.43;35.01
50057;BME280;36875;49.468;11.200;2024-03-17T11:28:45;98473.69;;;24.51;33.75
50057;BME280;36875;49.468;11.200;2024-03-17T11:31:34;98473.66;;;24.68;34.64
50057;BME280;36875;49.468;11.200;2024-03-17T11:34:01;98469.84;;;24.90;34.66
50057;BME280;36875;49.468;11.200;2024-03-17T11:36:37;98471.91;;;25.02;35.09
50057;BME280;36875;49.468;11.200;2024-03-17T11:39:04;98480.50;;;25.00;35.09
50057;BME280;36875;49.468;11.200;2024-03-17T11:41:51;98458.22;;;25.14;34.75
50057;BME280;36875;49.468;11.200;2024-03-17T11:44:24;98455.28;;;25.19;35.42
50057;BME280;36875;49.468;11.200;2024-03-17T11:46:54;98461.13;;;25.27;35.17
50057;BME280;36875;49.468;11.200;2024-03-17T11:49:28;98453.19;;;25.25;35.69
50057;BME280;36875;49.468;11.200;2024-03-17T11:51:55;98448.66;;;25.20;35.58
50057;BME280;36875;49.468;11.200;2024-03-17T11:54:22;98404.69;;;25.03;35.51
50057;BME280;36875;49.468;11.200;2024-03-17T11:56:50;98433.41;;;25.23;35.64
50057;BME280;36875;49.468;11.200;2024-03-17T11:59:16;98430.34;;;25.25;35.43
50057;BME280;36875;49.468;11.200;2024-03-17T12:01:45;98430.50;;;25.28;35.73
50057;BME280;36875;49.468;11.200;2024-03-17T12:04:15;98431.09;;;25.34;35.62
50057;BME280;36875;49.468;11.200;2024-03-17T12:06:44;98432.13;;;25.20;34.58
50057;BME280;36875;49.468;11.200;2024-03-17T12:09:19;98424.88;;;25.46;33.23
50057;BME280;36875;49.468;11.200;2024-03-17T12:11:48;98429.03;;;25.73;33.17
50057;BME280;36875;49.468;11.200;2024-03-17T12:14:15;98417.72;;;25.87;33.53
50057;BME280;36875;49.468;11.200;2024-03-17T12:16:52;98415.09;;;25.90;33.76
50057;BME280;36875;49.468;11.200;2024-03-17T12:19:19;98415.84;;;26.00;32.98
50057;BME280;36875;49.468;11.200;2024-03-17T12:21:47;98411.41;;;25.86;31.84
50057;BME280;36875;49.468;11.200;2024-03-17T12:24:15;98414.25;;;25.77;31.06
50057;BME280;36875;49.468;11.200;2024-03-17T12:26:42;98409.78;;;25.85;30.81
50057;BME280;36875;49.468;11.200;2024-03-17T12:29:25;98400.16;;;25.91;31.18
50057;BME280;36875;49.468;11.200;2024-03-17T12:31:53;98402.06;;;26.00;31.81
50057;BME280;36875;49.468;11.200;2024-03-17T12:34:22;98397.94;;;26.06;31.89
50057;BME280;36875;49.468;11.200;2024-03-17T12:36:48;98402.25;;;26.15;32.00
50057;BME280;36875;49.468;11.200;2024-03-17T12:39:19;98398.31;;;26.16;32.30
50057;BME280;36875;49.468;11.200;2024-03-17T12:42:01;98382.34;;;25.89;32.67
50057;BME280;36875;49.468;11.200;2024-03-17T12:44:27;98378.53;;;25.81;31.69
50057;BME280;36875;49.468;11.200;2024-03-17T12:46:56;98387.16;;;25.58;31.14
50057;BME280;36875;49.468;11.200;2024-03-17T12:49:23;98382.25;;;25.43;30.86
50057;BME280;36875;49.468;11.200;2024-03-17T12:51:52;98379.66;;;25.17;30.41